2 juli 2022

Tijd Code Weer Temp. Zicht Plafond Wind METAR/SPECI
9:00 a.m.
V
63 °F 6¼ mi+ - 110° 110° 3 kt METAR LFCR 020700Z AUTO 11003KT 070V140 CAVOK 17/11 Q1021 NOSIG
8:30 a.m.
V
59 °F 6¼ mi+ - 120° 120° 4 kt METAR LFCR 020630Z AUTO 12004KT CAVOK 15/10 Q1021 NOSIG
8:00 a.m.
V
55 °F 6¼ mi+ - 130° 130° 4 kt METAR LFCR 020600Z AUTO 13004KT CAVOK 13/10 Q1021 NOSIG
7:30 a.m.
V
52 °F 6¼ mi+ - 160° 160° 3 kt METAR LFCR 020530Z AUTO 16003KT 120V180 CAVOK 11/09 Q1021 NOSIG
7:00 a.m.
V
50 °F 6¼ mi+ - 080° 080° 3 kt METAR LFCR 020500Z AUTO 08003KT CAVOK 10/09 Q1021 NOSIG
6:30 a.m.
V
46 °F 6¼ mi+ - 140° 140° 5 kt METAR LFCR 020430Z AUTO 14005KT CAVOK 08/08 Q1021 NOSIG
6:00 a.m.
V
48 °F 6¼ mi+ - 160° 160° 3 kt METAR LFCR 020400Z AUTO 16003KT CAVOK 09/08 Q1021 NOSIG
5:30 a.m.
V
50 °F 6¼ mi+ - 060° 060° 6 kt METAR LFCR 020330Z AUTO 06006KT CAVOK 10/09 Q1021 NOSIG
5:00 a.m.
V
50 °F 6¼ mi+ - 060° 060° 3 kt METAR LFCR 020300Z AUTO 06003KT CAVOK 10/09 Q1021 NOSIG
4:30 a.m.
V
50 °F 6¼ mi+ - 140° 140° 3 kt METAR LFCR 020230Z AUTO 14003KT CAVOK 10/09 Q1021 NOSIG
4:00 a.m.
V
50 °F 6¼ mi+ - 170° 170° 2 kt METAR LFCR 020200Z AUTO 17002KT CAVOK 10/09 Q1021 NOSIG
3:30 a.m.
V
50 °F 6¼ mi+ - 160° 160° 2 kt METAR LFCR 020130Z AUTO 16002KT CAVOK 10/09 Q1021 NOSIG
3:00 a.m.
V
50 °F 6¼ mi+ - 150° 150° 4 kt METAR LFCR 020100Z AUTO 15004KT CAVOK 10/09 Q1021 NOSIG
2:30 a.m.
V
50 °F 6¼ mi+ - 150° 150° 2 kt METAR LFCR 020030Z AUTO 15002KT CAVOK 10/08 Q1021 NOSIG
2:00 a.m.
V
50 °F 6¼ mi+ - 140° 140° 3 kt METAR LFCR 020000Z AUTO 14003KT CAVOK 10/08 Q1021 NOSIG
1:30 a.m.
V
52 °F 6¼ mi+ - Var 000° 0 kt METAR LFCR 012330Z AUTO 00000KT CAVOK 11/09 Q1021 NOSIG
1:00 a.m.
V
54 °F 6¼ mi+ - 200° 200° 3 kt METAR LFCR 012300Z AUTO 20003KT CAVOK 12/09 Q1022 NOSIG
12:30 a.m.
V
54 °F 6¼ mi+ - 230° 230° 3 kt METAR LFCR 012230Z AUTO 23003KT CAVOK 12/09 Q1022 NOSIG
12:00 a.m.
V
55 °F 6¼ mi+ - Var Var 3 kt METAR LFCR 012200Z AUTO VRB03KT CAVOK 13/10 Q1022 NOSIG

1 juli 2022

Tijd Code Weer Temp. Zicht Plafond Wind METAR/SPECI
11:30 p.m.
V
55 °F 6¼ mi+ - 230° 230° 3 kt METAR LFCR 012130Z AUTO 23003KT CAVOK 13/10 Q1022 NOSIG
11:00 p.m.
V
57 °F 6¼ mi+ - 270° 270° 3 kt METAR LFCR 012100Z AUTO 27003KT CAVOK 14/10 Q1021 NOSIG
10:30 p.m.
V
57 °F 6¼ mi+ - 290° 290° 5 kt METAR LFCR 012030Z AUTO 29005KT CAVOK 14/10 Q1021 NOSIG
10:00 p.m.
V
59 °F 6¼ mi+ - 300° 300° 5 kt METAR LFCR 012000Z AUTO 30005KT CAVOK 15/10 Q1021 NOSIG
9:30 p.m.
V
61 °F 6¼ mi+ - 300° 300° 5 kt METAR LFCR 011930Z AUTO 30005KT CAVOK 16/10 Q1021 NOSIG
9:00 p.m.
V
64 °F 6¼ mi+ - 300° 300° 8 kt METAR LFCR 011900Z AUTO 30008KT CAVOK 18/11 Q1021 NOSIG
8:30 p.m.
V
66 °F 6¼ mi+ - 310° 310° 9 kt METAR LFCR 011830Z AUTO 31009KT CAVOK 19/10 Q1021 NOSIG
8:00 p.m.
V
68 °F 6¼ mi+ - 320° 320° 8 kt METAR LFCR 011800Z AUTO 32008KT CAVOK 20/10 Q1021 NOSIG
7:30 p.m.
V
68 °F 6¼ mi+ - 320° 320° 7 kt METAR LFCR 011730Z AUTO 32007KT 300V360 CAVOK 20/10 Q1020 NOSIG
7:00 p.m.
V
68 °F 6¼ mi+ - 330° 330° 7 kt METAR LFCR 011700Z AUTO 33007KT 290V010 CAVOK 20/09 Q1021 NOSIG
6:30 p.m.
V
70 °F 6¼ mi+ - 330° 330° 7 kt METAR LFCR 011630Z AUTO 33007KT 280V360 CAVOK 21/10 Q1021 NOSIG
6:00 p.m.
V
68 °F 6¼ mi+ - 310° 310° 6 kt METAR LFCR 011600Z AUTO 31006KT 270V010 CAVOK 20/09 Q1021 NOSIG
5:30 p.m.
V
68 °F 6¼ mi+ - 300° 300° 8 kt METAR LFCR 011530Z AUTO 30008KT 270V350 CAVOK 20/09 Q1021 NOSIG
5:00 p.m.
V
68 °F 6¼ mi+ - 280° 280° 6 kt METAR LFCR 011500Z AUTO 28006KT 220V340 CAVOK 20/11 Q1021 NOSIG
4:30 p.m.
V
68 °F 6¼ mi+ - 300° 300° 7 kt METAR LFCR 011430Z AUTO 30007KT 260V350 CAVOK 20/10 Q1021 NOSIG
4:00 p.m.
V
68 °F 6¼ mi+ - 320° 320° 8 kt METAR LFCR 011400Z AUTO 32008KT 260V030 9999 FEW043 20/11 Q1021 NOSIG
3:30 p.m.
V
66 °F 6¼ mi+ - 320° 320° 6 kt METAR LFCR 011330Z AUTO 32006KT 260V010 9999 FEW044 19/10 Q1021 NOSIG
3:00 p.m.
V
66 °F 6¼ mi+ - 320° 320° 7 kt METAR LFCR 011300Z AUTO 32007KT 290V020 CAVOK 19/09 Q1021 NOSIG
2:30 p.m.
V
66 °F 6¼ mi+ - 310° 310° 7 kt METAR LFCR 011230Z AUTO 31007KT 250V360 9999 FEW041 19/10 Q1021 NOSIG
2:00 p.m.
V
64 °F 6¼ mi+ - 310° 310° 7 kt METAR LFCR 011200Z AUTO 31007KT 260V030 9999 SCT039 18/09 Q1021 NOSIG
1:30 p.m.
V
64 °F 6¼ mi+ - 310° 310° 6 kt METAR LFCR 011130Z AUTO 31006KT 240V030 9999 FEW038 18/10 Q1022 NOSIG
1:00 p.m.
V
63 °F 6¼ mi+ - 330° 330° 7 kt METAR LFCR 011100Z AUTO 33007KT 300V010 9999 SCT035 17/09 Q1022 NOSIG
12:30 p.m.
V
61 °F 6¼ mi+ - Var Var 6 kt METAR LFCR 011030Z AUTO VRB06KT 9999 SCT031 16/09 Q1022 NOSIG
12:00 p.m.
V
61 °F 6¼ mi+ - Var Var 5 kt METAR LFCR 011000Z AUTO VRB05KT 9999 FEW001 SCT028 16/10 Q1021 NOSIG
11:30 a.m.
V
61 °F 6¼ mi+ - 310° 310° 7 kt METAR LFCR 010930Z AUTO 31007KT 260V360 9999 SCT028 16/10 Q1021 NOSIG
11:00 a.m.
V
59 °F 6¼ mi+ - 320° 320° 7 kt METAR LFCR 010900Z AUTO 32007KT 270V360 9999 FEW019 15/11 Q1021 NOSIG
10:30 a.m.
V
57 °F 6¼ mi+ - 320° 320° 8 kt METAR LFCR 010830Z AUTO 32008KT 280V360 9999 FEW018 14/11 Q1021 NOSIG
10:00 a.m.
V
57 °F 6¼ mi+ - 320° 320° 6 kt METAR LFCR 010800Z AUTO 32006KT 290V350 9999 FEW011 14/11 Q1021 NOSIG
9:30 a.m.
I
55 °F 6¼ mi+ 900 ft 340° 340° 6 kt METAR LFCR 010730Z AUTO 34006KT 300V020 9999 BKN009 13/11 Q1021 BECMG FEW012
9:00 a.m.
V
55 °F 6¼ mi+ - 320° 320° 6 kt METAR LFCR 010700Z AUTO 32006KT 280V340 9999 FEW007 13/11 Q1021 NOSIG
8:30 a.m.
V
52 °F 6¼ mi+ - 320° 320° 8 kt METAR LFCR 010630Z AUTO 32008KT 9999 SCT005 11/10 Q1021 NOSIG
8:00 a.m.
L
52 °F 6¼ mi+ 400 ft 310° 310° 8 kt METAR LFCR 010600Z AUTO 31008KT 9999 BKN004 11/10 Q1021 BECMG FEW012
7:30 a.m.
L
50 °F 6¼ mi+ 400 ft 300° 300° 6 kt METAR LFCR 010530Z AUTO 30006KT 9999 BKN004 10/10 Q1021 BECMG FEW012
7:00 a.m.
V
48 °F 6¼ mi+ - 270° 270° 4 kt METAR LFCR 010500Z AUTO 27004KT 9999 FEW002 09/09 Q1021 TEMPO 0400 FG VV///
6:30 a.m.
L
48 °F 1 mi - 280° 280° 3 kt METAR LFCR 010430Z AUTO 28003KT 1600 BR VV/// 09/08 Q1020 BECMG 9999 NSW FEW012
6:00 a.m.
L
50 °F 6¼ mi+ 200 ft 320° 320° 3 kt METAR LFCR 010400Z AUTO 32003KT 290V350 9999 BKN002 OVC006 10/10 Q1020 TEMPO 0400 FG VV///
5:30 a.m.
L
50 °F 6¼ mi+ 200 ft 330° 330° 6 kt METAR LFCR 010330Z AUTO 33006KT 300V360 9999 OVC002 10/10 Q1020 TEMPO 0400 FG VV///
5:00 a.m.
L
50 °F 6¼ mi+ 300 ft 320° 320° 7 kt METAR LFCR 010300Z AUTO 32007KT 9999 OVC003 10/10 Q1021 TEMPO 0400 FG VV///
4:30 a.m.
L
52 °F 6¼ mi+ 300 ft 300° 300° 6 kt METAR LFCR 010230Z AUTO 30006KT 9999 BKN003 OVC027 11/10 Q1021 TEMPO 0400 FG VV///
4:00 a.m.
I
52 °F 6¼ mi+ 500 ft 300° 300° 5 kt METAR LFCR 010200Z AUTO 30005KT 9999 BKN005 OVC028 11/11 Q1021 TEMPO 0400 FG VV///
3:30 a.m.
L
52 °F 6¼ mi+ 300 ft 300° 300° 5 kt METAR LFCR 010130Z AUTO 30005KT 9999 BKN003 OVC010 11/11 Q1021 TEMPO 0400 FG VV///
3:00 a.m.
I
52 °F 6¼ mi+ 700 ft 310° 310° 6 kt METAR LFCR 010100Z AUTO 31006KT 9999 BKN007 OVC012 11/11 Q1021 BECMG 3000 BR OVC002
2:30 a.m.
I
52 °F 6¼ mi+ 600 ft 300° 300° 5 kt METAR LFCR 010030Z AUTO 30005KT 9999 OVC006 11/11 Q1021 BECMG 3000 BR OVC002
2:00 a.m.
I
52 °F 6¼ mi+ 800 ft 310° 310° 3 kt METAR LFCR 010000Z AUTO 31003KT 9999 BKN008 OVC020 11/11 Q1021 BECMG 3000 BR OVC002
1:30 a.m.
M
52 °F 6¼ mi+ 1.900 ft Var Var 2 kt METAR LFCR 302330Z AUTO VRB02KT 9999 FEW007 OVC019 11/10 Q1021 BECMG 3000 BR OVC002
1:00 a.m.
M
52 °F 6¼ mi+ 1.800 ft 280° 280° 3 kt METAR LFCR 302300Z AUTO 28003KT 260V320 9999 BKN018 BKN078 OVC150 11/10 Q1021 TEMPO 2000 BR OVC002
12:30 a.m.
V
52 °F 6¼ mi+ - 290° 290° 6 kt METAR LFCR 302230Z AUTO 29006KT 9999 //////CB 11/11 Q1020 TEMPO 2000 BR OVC002
12:00 a.m.
V
52 °F 6¼ mi+ 7.600 ft 290° 290° 9 kt METAR LFCR 302200Z AUTO 29009KT 9999 -RA SCT008/// SCT030/// BKN076/// ///CB 11/11 Q1020 BECMG BKN006

30 juni 2022

Tijd Code Weer Temp. Zicht Plafond Wind METAR/SPECI
11:30 p.m.
I
54 °F 6¼ mi+ 600 ft 300° 300° 8 kt METAR LFCR 302130Z AUTO 30008KT 9999 -RA BKN006/// OVC046/// ///CB 12/12 Q1020 BECMG BKN006
11:00 p.m.
V
54 °F 6¼ mi+ 6.800 ft 290° 290° 8 kt METAR LFCR 302100Z AUTO 29008KT 9999 RA SCT009/// OVC068/// ///CB 12/11 Q1020 TEMPO 4000 -SHRA BECMG BKN006
10:30 p.m.
V
54 °F 6¼ mi+ - 300° 300° 8 kt METAR LFCR 302030Z AUTO 30008KT 9999 RA //////TCU 12/11 Q1020 TEMPO 4000 -SHRA BKN008 SCT050CB
10:00 p.m.
V
54 °F 6¼ mi+ 13.000 ft 310° 310° 6 kt METAR LFCR 302000Z AUTO 31006KT 9999 FEW047/// SCT100/// BKN130/// ///CB 12/11 Q1019 TEMPO 4000 -SHRA BKN008 SCT050CB
9:30 p.m.
V
54 °F 6¼ mi+ 9.200 ft 310° 310° 8 kt METAR LFCR 301930Z AUTO 31008KT 9999 -RA FEW008/// OVC092/// ///CB 12/12 Q1019 TEMPO 4000 -SHRA BKN008 SCT050CB
9:00 p.m.
V
55 °F 6¼ mi+ 7.000 ft 300° 300° 8 kt METAR LFCR 301900Z AUTO 30008KT 9999 FEW009/// SCT014/// OVC070/// ///CB 13/12 Q1019 TEMPO 4000 -SHRA BKN008 SCT050CB
8:30 p.m.
M
55 °F 6¼ mi+ 1.300 ft 310° 310° 9 kt METAR LFCR 301830Z AUTO 31009KT 9999 BKN013 BKN023 OVC110 13/12 Q1018 TEMPO 4000 -SHRA BKN008 SCT050CB
8:00 p.m.
V
57 °F 6¼ mi+ 18.000 ft 310° 310° 10 kt METAR LFCR 301800Z AUTO 31010KT 9999 SCT012/// SCT022/// BKN180/// //////TCU 14/12 Q1018 TEMPO 4000 -SHRA BKN008 SCT050CB
7:30 p.m.
M
57 °F 6¼ mi+ 2.100 ft 300° 300° 8 kt METAR LFCR 301730Z AUTO 30008KT 9999 SCT013 BKN021 OVC120 14/11 Q1018 TEMPO 4000 -SHRA BKN008 SCT050CB
7:00 p.m.
M
57 °F 6¼ mi+ 1.300 ft 310° 310° 8 kt METAR LFCR 301700Z AUTO 31008KT 280V340 9999 BKN013 BKN019 OVC130 14/12 Q1018 TEMPO BKN007
6:30 p.m.
M
57 °F 6¼ mi+ 1.500 ft 310° 310° 10 kt METAR LFCR 301630Z AUTO 31010KT 9999 BKN015 BKN020 BKN030 14/12 Q1018 TEMPO BKN007
6:00 p.m.
M
57 °F 6¼ mi+ 1.200 ft 320° 320° 7 kt METAR LFCR 301600Z AUTO 32007KT 290V350 9999 BKN012 OVC019 14/12 Q1018 TEMPO BKN007
5:30 p.m.
I
57 °F 6¼ mi+ 900 ft 310° 310° 10 kt METAR LFCR 301530Z AUTO 31010KT 290V350 9999 BKN009 OVC013 14/12 Q1018 NOSIG
5:00 p.m.
M
57 °F 6¼ mi+ 1.000 ft 300° 300° 10 kt METAR LFCR 301500Z AUTO 30010KT 9999 OVC010 14/12 Q1018 NOSIG
4:30 p.m.
M
57 °F 6¼ mi+ 1.000 ft 290° 290° 8 kt METAR LFCR 301430Z AUTO 29008KT 260V320 9999 BKN010 BKN017 BKN027 14/12 Q1018 NOSIG
4:00 p.m.
M
57 °F 6¼ mi+ 1.100 ft 300° 300° 10 kt METAR LFCR 301400Z AUTO 30010KT 9999 BKN011 BKN016 OVC023 14/12 Q1017 NOSIG
3:30 p.m.
M
57 °F 6¼ mi+ 1.000 ft 300° 300° 10 kt METAR LFCR 301330Z AUTO 30010KT 9999 BKN010 OVC018 14/13 Q1017 NOSIG
3:00 p.m.
I
57 °F 6¼ mi+ 800 ft 290° 290° 10 kt METAR LFCR 301300Z AUTO 29010KT 9999 OVC008 14/13 Q1017 TEMPO 2000 -DZ BKN013
2:30 p.m.
I
57 °F 6¼ mi+ 900 ft 300° 300° 11 kt METAR LFCR 301230Z AUTO 30011KT 9999 -RADZ BKN009 OVC014 14/12 Q1017 TEMPO 2000 -DZ BKN013
2:00 p.m.
I
57 °F 6¼ mi+ 700 ft 300° 300° 10 kt METAR LFCR 301200Z AUTO 30010KT 9999 BKN007 OVC014 14/13 Q1017 TEMPO 2000 -DZ BKN004
1:30 p.m.
I
57 °F 5 mi 500 ft 290° 290° 9 kt METAR LFCR 301130Z AUTO 29009KT 8000 -DZ OVC005 14/13 Q1016 TEMPO BKN013
1:00 p.m.
I
55 °F 2⅛ mi 500 ft 290° 290° 9 kt METAR LFCR 301100Z AUTO 29009KT 3400 -DZ BR OVC005 13/13 Q1016 TEMPO BKN016 BECMG 9999 NSW
12:30 p.m.
L
55 °F 3⅛ mi 300 ft 280° 280° 9 kt METAR LFCR 301030Z AUTO 28009KT 5000 BR OVC003 13/13 Q1016 TEMPO BKN016
12:00 p.m.
L
55 °F 3¾ mi 300 ft 300° 300° 8 kt METAR LFCR 301000Z AUTO 30008KT 6000 -DZ OVC003 13/13 Q1016 TEMPO 2000 -RADZ BECMG BKN016
11:30 a.m.
L
57 °F 1⅝ mi - 270° 270° 8 kt METAR LFCR 300930Z AUTO 27008KT 2600 BR VV/// 14/14 Q1015 BECMG 9999 NSW BKN016
11:00 a.m.
L
57 °F 1½ mi 200 ft 280° 280° 7 kt METAR LFCR 300900Z AUTO 28007KT 2400 BR BKN002 OVC009 14/14 Q1015 BECMG 9999 NSW BKN016
10:30 a.m.
I
61 °F 6¼ mi+ 900 ft 270° 270° 5 kt METAR LFCR 300830Z AUTO 27005KT 9999 BKN009 OVC014 16/14 Q1015 TEMPO 4000 -RADZ BECMG BKN016
10:00 a.m.
I
61 °F 6¼ mi+ 700 ft 260° 260° 3 kt METAR LFCR 300800Z AUTO 26003KT 230V300 9999 BKN007 OVC015 16/14 Q1015 TEMPO 4000 -RADZ OVC003
9:30 a.m.
I
59 °F 6¼ mi+ 700 ft 220° 220° 5 kt METAR LFCR 300730Z AUTO 22005KT 180V260 9999 OVC007 15/14 Q1015 TEMPO 4000 -RADZ OVC003
9:00 a.m.
I
59 °F 6¼ mi+ 800 ft 190° 190° 3 kt METAR LFCR 300700Z AUTO 19003KT 150V220 9999 OVC008 15/14 Q1014 TEMPO 4000 -RADZ OVC003
8:30 a.m.
I
59 °F 6¼ mi+ 600 ft 200° 200° 4 kt METAR LFCR 300630Z AUTO 20004KT 160V230 9999 OVC006 15/14 Q1014 TEMPO 4000 -RADZ OVC003
8:00 a.m.
I
57 °F 6¼ mi+ 500 ft 220° 220° 6 kt METAR LFCR 300600Z AUTO 22006KT 9999 OVC005 14/14 Q1014 TEMPO 4000 -RADZ
7:30 a.m.
L
57 °F 6¼ mi+ 400 ft 250° 250° 3 kt METAR LFCR 300530Z AUTO 25003KT 190V290 9999 OVC004 14/14 Q1014 TEMPO 4000 -DZ
7:00 a.m.
L
57 °F 3⅛ mi 200 ft 240° 240° 8 kt METAR LFCR 300500Z AUTO 24008KT 5000 BR BKN002 BKN130 14/14 Q1014 NOSIG
Oudere gegevens

Installeer onze app

Gemakkelijke toegang tot al het luchtvaartweer op je mobiele telefoon en tablet.
Met veel functies die niet op de website beschikbaar zijn, zoals offline ondersteuning en een persoonlijke lijst van vliegvelden.

Met cookies volgen wij en derde partijen jouw internetgedrag binnen onze site. Als je verdergaat gaan we ervan uit dat je dit goedvindt. Meer info